sensor_id;sensor_type;location;lat;lon;timestamp;pressure;altitude;pressure_sealevel;temperature;humidity
50292;BME280;36190;54.980;73.388;2024-01-07T00:01:08;101021.19;;;-18.74;67.27
50292;BME280;36190;54.980;73.388;2024-01-07T00:03:37;101012.53;;;-18.83;67.47
50292;BME280;36190;54.980;73.388;2024-01-07T00:06:07;101015.00;;;-18.87;67.28
50292;BME280;36190;54.980;73.388;2024-01-07T00:08:36;101022.69;;;-18.84;67.21
50292;BME280;36190;54.980;73.388;2024-01-07T00:11:04;101017.63;;;-18.83;67.54
50292;BME280;36190;54.980;73.388;2024-01-07T00:13:31;101026.97;;;-18.82;67.47
50292;BME280;36190;54.980;73.388;2024-01-07T00:15:58;101024.44;;;-18.80;67.40
50292;BME280;36190;54.980;73.388;2024-01-07T00:18:25;101024.50;;;-18.78;67.26
50292;BME280;36190;54.980;73.388;2024-01-07T00:20:53;101016.13;;;-18.74;67.40
50292;BME280;36190;54.980;73.388;2024-01-07T00:23:20;101015.28;;;-18.72;67.33
50292;BME280;36190;54.980;73.388;2024-01-07T00:25:49;101006.75;;;-18.75;67.18
50292;BME280;36190;54.980;73.388;2024-01-07T00:28:17;101009.41;;;-18.69;67.28
50292;BME280;36190;54.980;73.388;2024-01-07T00:30:44;101005.22;;;-18.67;67.27
50292;BME280;36190;54.980;73.388;2024-01-07T00:33:12;101003.56;;;-18.65;67.33
50292;BME280;36190;54.980;73.388;2024-01-07T00:35:39;101000.28;;;-18.59;67.36
50292;BME280;36190;54.980;73.388;2024-01-07T00:38:06;101002.88;;;-18.58;67.41
50292;BME280;36190;54.980;73.388;2024-01-07T00:40:34;100994.31;;;-18.60;67.45
50292;BME280;36190;54.980;73.388;2024-01-07T00:43:03;101001.16;;;-18.59;67.40
50292;BME280;36190;54.980;73.388;2024-01-07T00:45:31;101004.50;;;-18.61;67.50
50292;BME280;36190;54.980;73.388;2024-01-07T00:47:58;100999.34;;;-18.63;67.40
50292;BME280;36190;54.980;73.388;2024-01-07T00:50:26;101007.88;;;-18.61;67.71
50292;BME280;36190;54.980;73.388;2024-01-07T00:52:53;101006.31;;;-18.56;67.83
50292;BME280;36190;54.980;73.388;2024-01-07T00:55:21;101003.75;;;-18.56;67.64
50292;BME280;36190;54.980;73.388;2024-01-07T00:57:49;101010.59;;;-18.52;67.85
50292;BME280;36190;54.980;73.388;2024-01-07T01:00:19;101018.31;;;-18.48;68.02
50292;BME280;36190;54.980;73.388;2024-01-07T01:02:47;101019.16;;;-18.48;68.10
50292;BME280;36190;54.980;73.388;2024-01-07T01:05:15;101014.94;;;-18.47;68.13
50292;BME280;36190;54.980;73.388;2024-01-07T01:07:42;101008.13;;;-18.48;68.12
50292;BME280;36190;54.980;73.388;2024-01-07T01:10:10;101014.16;;;-18.45;68.17
50292;BME280;36190;54.980;73.388;2024-01-07T01:12:39;101015.06;;;-18.41;68.29
50292;BME280;36190;54.980;73.388;2024-01-07T01:15:06;101018.53;;;-18.37;68.17
50292;BME280;36190;54.980;73.388;2024-01-07T01:17:36;101016.78;;;-18.40;68.08
50292;BME280;36190;54.980;73.388;2024-01-07T01:20:04;101009.91;;;-18.44;67.92
50292;BME280;36190;54.980;73.388;2024-01-07T01:22:31;101010.66;;;-18.50;67.84
50292;BME280;36190;54.980;73.388;2024-01-07T01:25:02;101014.78;;;-18.57;67.60
50292;BME280;36190;54.980;73.388;2024-01-07T01:27:29;101008.66;;;-18.63;67.55
50292;BME280;36190;54.980;73.388;2024-01-07T01:29:57;100998.53;;;-18.62;67.72
50292;BME280;36190;54.980;73.388;2024-01-07T01:32:24;101008.66;;;-18.65;67.71
50292;BME280;36190;54.980;73.388;2024-01-07T01:34:53;101006.88;;;-18.69;67.62
50292;BME280;36190;54.980;73.388;2024-01-07T01:37:21;101010.19;;;-18.72;67.60
50292;BME280;36190;54.980;73.388;2024-01-07T01:39:48;101012.78;;;-18.70;67.78
50292;BME280;36190;54.980;73.388;2024-01-07T01:42:16;101013.63;;;-18.71;67.77
50292;BME280;36190;54.980;73.388;2024-01-07T01:44:43;101005.09;;;-18.72;67.77
50292;BME280;36190;54.980;73.388;2024-01-07T01:47:11;101008.47;;;-18.73;67.63
50292;BME280;36190;54.980;73.388;2024-01-07T01:49:40;100980.16;;;-18.90;67.66
50292;BME280;36190;54.980;73.388;2024-01-07T01:52:09;101008.38;;;-18.77;67.63
50292;BME280;36190;54.980;73.388;2024-01-07T01:54:37;101010.88;;;-18.81;67.51
50292;BME280;36190;54.980;73.388;2024-01-07T01:57:05;101009.09;;;-18.85;67.48
50292;BME280;36190;54.980;73.388;2024-01-07T01:59:33;101015.97;;;-18.81;67.63
50292;BME280;36190;54.980;73.388;2024-01-07T02:02:01;101009.16;;;-18.82;67.59
50292;BME280;36190;54.980;73.388;2024-01-07T02:04:29;101010.84;;;-18.82;67.49
50292;BME280;36190;54.980;73.388;2024-01-07T02:06:59;101009.22;;;-18.78;67.61
50292;BME280;36190;54.980;73.388;2024-01-07T02:09:28;101011.75;;;-18.78;67.64
50292;BME280;36190;54.980;73.388;2024-01-07T02:12:01;101005.94;;;-18.74;67.54
50292;BME280;36190;54.980;73.388;2024-01-07T02:14:29;101011.06;;;-18.71;67.51
50292;BME280;36190;54.980;73.388;2024-01-07T02:16:57;100999.19;;;-18.72;67.55
50292;BME280;36190;54.980;73.388;2024-01-07T02:19:26;100988.94;;;-18.75;67.43
50292;BME280;36190;54.980;73.388;2024-01-07T02:21:53;101000.75;;;-18.77;67.41
50292;BME280;36190;54.980;73.388;2024-01-07T02:24:22;101014.41;;;-18.74;67.50
50292;BME280;36190;54.980;73.388;2024-01-07T02:26:50;101003.44;;;-18.71;67.61
50292;BME280;36190;54.980;73.388;2024-01-07T02:29:18;101009.34;;;-18.72;67.45
50292;BME280;36190;54.980;73.388;2024-01-07T02:31:45;101018.81;;;-18.67;67.72
50292;BME280;36190;54.980;73.388;2024-01-07T02:34:13;101015.44;;;-18.66;67.68
50292;BME280;36190;54.980;73.388;2024-01-07T02:36:40;101012.91;;;-18.64;67.72
50292;BME280;36190;54.980;73.388;2024-01-07T02:39:08;101008.66;;;-18.65;67.80
50292;BME280;36190;54.980;73.388;2024-01-07T02:41:37;101009.41;;;-18.69;67.68
50292;BME280;36190;54.980;73.388;2024-01-07T02:44:05;101010.94;;;-18.79;67.44
50292;BME280;36190;54.980;73.388;2024-01-07T02:46:32;101017.56;;;-18.86;67.25
50292;BME280;36190;54.980;73.388;2024-01-07T02:49:00;101022.63;;;-18.86;67.43
50292;BME280;36190;54.980;73.388;2024-01-07T02:51:27;101004.81;;;-18.86;67.51
50292;BME280;36190;54.980;73.388;2024-01-07T02:53:55;100995.56;;;-18.84;67.68
50292;BME280;36190;54.980;73.388;2024-01-07T02:56:22;101011.66;;;-18.83;67.63
50292;BME280;36190;54.980;73.388;2024-01-07T02:58:51;101004.03;;;-18.83;67.54
50292;BME280;36190;54.980;73.388;2024-01-07T03:01:21;100986.91;;;-18.90;67.63
50292;BME280;36190;54.980;73.388;2024-01-07T03:03:49;100999.00;;;-18.82;67.66
50292;BME280;36190;54.980;73.388;2024-01-07T03:06:17;100990.38;;;-18.87;67.60
50292;BME280;36190;54.980;73.388;2024-01-07T03:08:44;100990.56;;;-18.77;67.60
50292;BME280;36190;54.980;73.388;2024-01-07T03:11:12;100990.56;;;-18.77;67.72
50292;BME280;36190;54.980;73.388;2024-01-07T03:13:40;100984.66;;;-18.76;67.73
50292;BME280;36190;54.980;73.388;2024-01-07T03:16:19;100958.19;;;-18.85;67.84
50292;BME280;36190;54.980;73.388;2024-01-07T03:18:47;100954.16;;;-18.75;68.05
50292;BME280;36190;54.980;73.388;2024-01-07T03:21:18;100969.72;;;-18.59;68.22
50292;BME280;36190;54.980;73.388;2024-01-07T03:23:46;100976.56;;;-18.57;68.26
50292;BME280;36190;54.980;73.388;2024-01-07T03:26:13;100971.53;;;-18.55;68.25
50292;BME280;36190;54.980;73.388;2024-01-07T03:28:41;100965.38;;;-18.65;68.18
50292;BME280;36190;54.980;73.388;2024-01-07T03:31:12;100992.91;;;-18.47;68.27
50292;BME280;36190;54.980;73.388;2024-01-07T03:33:41;101000.63;;;-18.42;68.38
50292;BME280;36190;54.980;73.388;2024-01-07T03:36:09;100981.19;;;-18.37;68.38
50292;BME280;36190;54.980;73.388;2024-01-07T03:38:37;100976.91;;;-18.38;68.36
50292;BME280;36190;54.980;73.388;2024-01-07T03:41:05;100992.38;;;-18.29;68.50
50292;BME280;36190;54.980;73.388;2024-01-07T03:43:33;100971.06;;;-18.32;68.43
50292;BME280;36190;54.980;73.388;2024-01-07T03:46:00;100980.38;;;-18.34;68.37
50292;BME280;36190;54.980;73.388;2024-01-07T03:48:29;100986.34;;;-18.34;68.38
50292;BME280;36190;54.980;73.388;2024-01-07T03:50:57;100990.66;;;-18.30;68.54
50292;BME280;36190;54.980;73.388;2024-01-07T03:53:24;101006.81;;;-18.28;68.53
50292;BME280;36190;54.980;73.388;2024-01-07T03:55:52;100993.38;;;-18.20;68.58
50292;BME280;36190;54.980;73.388;2024-01-07T03:58:19;100998.59;;;-18.14;68.60
50292;BME280;36190;54.980;73.388;2024-01-07T04:00:47;100984.34;;;-18.04;68.62
50292;BME280;36190;54.980;73.388;2024-01-07T04:03:14;100987.03;;;-17.93;68.57
50292;BME280;36190;54.980;73.388;2024-01-07T04:05:43;100962.28;;;-18.01;68.48
50292;BME280;36190;54.980;73.388;2024-01-07T04:08:11;100976.09;;;-17.88;68.38
50292;BME280;36190;54.980;73.388;2024-01-07T04:10:41;100973.53;;;-17.86;68.15
50292;BME280;36190;54.980;73.388;2024-01-07T04:13:09;100965.94;;;-17.85;68.07
50292;BME280;36190;54.980;73.388;2024-01-07T04:15:36;100965.91;;;-17.86;68.06
50292;BME280;36190;54.980;73.388;2024-01-07T04:18:04;100971.91;;;-17.84;67.98
50292;BME280;36190;54.980;73.388;2024-01-07T04:20:32;100955.81;;;-17.80;68.16
50292;BME280;36190;54.980;73.388;2024-01-07T04:23:01;100937.84;;;-17.88;67.97
50292;BME280;36190;54.980;73.388;2024-01-07T04:25:29;100936.41;;;-17.72;67.94
50292;BME280;36190;54.980;73.388;2024-01-07T04:27:56;100928.00;;;-17.64;67.95
50292;BME280;36190;54.980;73.388;2024-01-07T04:30:24;100931.59;;;-17.53;67.99
50292;BME280;36190;54.980;73.388;2024-01-07T04:32:51;100924.00;;;-17.48;67.97
50292;BME280;36190;54.980;73.388;2024-01-07T04:35:19;100922.31;;;-17.48;67.84
50292;BME280;36190;54.980;73.388;2024-01-07T04:37:46;100912.13;;;-17.46;67.91
50292;BME280;36190;54.980;73.388;2024-01-07T04:40:16;100908.81;;;-17.40;67.87
50292;BME280;36190;54.980;73.388;2024-01-07T04:42:43;100902.97;;;-17.30;68.11
50292;BME280;36190;54.980;73.388;2024-01-07T04:45:10;100901.44;;;-17.19;68.06
50292;BME280;36190;54.980;73.388;2024-01-07T04:47:38;100895.63;;;-17.07;67.98
50292;BME280;36190;54.980;73.388;2024-01-07T04:50:06;100886.34;;;-16.97;67.82
50292;BME280;36190;54.980;73.388;2024-01-07T04:52:34;100891.53;;;-16.91;67.82
50292;BME280;36190;54.980;73.388;2024-01-07T04:55:01;100889.81;;;-16.92;67.66
50292;BME280;36190;54.980;73.388;2024-01-07T04:57:30;100894.22;;;-16.80;67.68
50292;BME280;36190;54.980;73.388;2024-01-07T04:59:58;100898.59;;;-16.68;67.74
50292;BME280;36190;54.980;73.388;2024-01-07T05:02:25;100902.09;;;-16.60;67.62
50292;BME280;36190;54.980;73.388;2024-01-07T05:04:53;100907.19;;;-16.60;67.44
50292;BME280;36190;54.980;73.388;2024-01-07T05:07:21;100908.91;;;-16.59;67.37
50292;BME280;36190;54.980;73.388;2024-01-07T05:09:48;100912.34;;;-16.56;67.47
50292;BME280;36190;54.980;73.388;2024-01-07T05:12:16;100908.16;;;-16.50;67.51
50292;BME280;36190;54.980;73.388;2024-01-07T05:14:45;100923.59;;;-16.39;67.54
50292;BME280;36190;54.980;73.388;2024-01-07T05:17:12;100906.66;;;-16.29;67.34
50292;BME280;36190;54.980;73.388;2024-01-07T05:19:40;100900.78;;;-16.20;67.34
50292;BME280;36190;54.980;73.388;2024-01-07T05:22:08;100903.44;;;-16.09;67.39
50292;BME280;36190;54.980;73.388;2024-01-07T05:24:37;100891.56;;;-16.01;67.24
50292;BME280;36190;54.980;73.388;2024-01-07T05:27:04;100894.16;;;-15.96;67.08
50292;BME280;36190;54.980;73.388;2024-01-07T05:29:32;100887.38;;;-15.91;67.05
50292;BME280;36190;54.980;73.388;2024-01-07T05:32:01;100893.34;;;-15.89;66.96
50292;BME280;36190;54.980;73.388;2024-01-07T05:34:30;100884.81;;;-15.86;66.80
50292;BME280;36190;54.980;73.388;2024-01-07T05:36:57;100877.16;;;-15.82;66.87
50292;BME280;36190;54.980;73.388;2024-01-07T05:39:24;100867.00;;;-15.77;66.85
50292;BME280;36190;54.980;73.388;2024-01-07T05:41:52;100868.75;;;-15.68;66.82
50292;BME280;36190;54.980;73.388;2024-01-07T05:44:19;100861.94;;;-15.66;66.71
50292;BME280;36190;54.980;73.388;2024-01-07T05:46:47;100852.56;;;-15.69;66.63
50292;BME280;36190;54.980;73.388;2024-01-07T05:49:16;100844.88;;;-15.70;66.58
50292;BME280;36190;54.980;73.388;2024-01-07T05:51:43;100841.44;;;-15.72;66.61
50292;BME280;36190;54.980;73.388;2024-01-07T05:54:11;100844.81;;;-15.77;66.65
50292;BME280;36190;54.980;73.388;2024-01-07T05:56:39;100834.53;;;-15.83;66.81
50292;BME280;36190;54.980;73.388;2024-01-07T05:59:07;100840.59;;;-15.68;67.04
50292;BME280;36190;54.980;73.388;2024-01-07T06:01:35;100818.41;;;-15.74;67.11
50292;BME280;36190;54.980;73.388;2024-01-07T06:04:02;100838.13;;;-15.56;67.08
50292;BME280;36190;54.980;73.388;2024-01-07T06:06:31;100841.56;;;-15.51;66.96
50292;BME280;36190;54.980;73.388;2024-01-07T06:08:59;100840.69;;;-15.53;66.93
50292;BME280;36190;54.980;73.388;2024-01-07T06:11:30;100846.69;;;-15.51;66.92
50292;BME280;36190;54.980;73.388;2024-01-07T06:13:57;100847.59;;;-15.38;67.12
50292;BME280;36190;54.980;73.388;2024-01-07T06:16:25;100840.88;;;-15.20;67.20
50292;BME280;36190;54.980;73.388;2024-01-07T06:18:53;100834.94;;;-15.05;67.17
50292;BME280;36190;54.980;73.388;2024-01-07T06:21:20;100828.16;;;-14.87;67.08
50292;BME280;36190;54.980;73.388;2024-01-07T06:23:49;100822.16;;;-14.72;66.90
50292;BME280;36190;54.980;73.388;2024-01-07T06:26:17;100831.59;;;-14.60;66.91
50292;BME280;36190;54.980;73.388;2024-01-07T06:28:44;100820.50;;;-14.48;66.86
50292;BME280;36190;54.980;73.388;2024-01-07T06:31:12;100820.50;;;-14.39;66.73
50292;BME280;36190;54.980;73.388;2024-01-07T06:33:39;100821.38;;;-14.34;66.69
50292;BME280;36190;54.980;73.388;2024-01-07T06:36:07;100817.09;;;-14.35;66.50
50292;BME280;36190;54.980;73.388;2024-01-07T06:38:34;100813.69;;;-14.32;66.44
50292;BME280;36190;54.980;73.388;2024-01-07T06:41:04;100806.84;;;-14.30;66.63
50292;BME280;36190;54.980;73.388;2024-01-07T06:43:31;100805.13;;;-14.31;66.34
50292;BME280;36190;54.980;73.388;2024-01-07T06:45:59;100793.16;;;-14.23;66.47
50292;BME280;36190;54.980;73.388;2024-01-07T06:48:26;100795.72;;;-14.07;66.59
50292;BME280;36190;54.980;73.388;2024-01-07T06:50:54;100802.53;;;-13.94;66.79
50292;BME280;36190;54.980;73.388;2024-01-07T06:53:21;100799.97;;;-13.85;66.58
50292;BME280;36190;54.980;73.388;2024-01-07T06:55:49;100793.97;;;-13.80;66.50
50292;BME280;36190;54.980;73.388;2024-01-07T06:58:18;100796.53;;;-13.76;66.36
50292;BME280;36190;54.980;73.388;2024-01-07T07:00:46;100802.47;;;-13.69;66.43
50292;BME280;36190;54.980;73.388;2024-01-07T07:03:13;100787.13;;;-13.75;66.24
50292;BME280;36190;54.980;73.388;2024-01-07T07:05:41;100775.16;;;-13.86;66.15
50292;BME280;36190;54.980;73.388;2024-01-07T07:08:07;100771.75;;;-13.94;66.22
50292;BME280;36190;54.980;73.388;2024-01-07T07:10:35;100770.91;;;-13.96;66.36
50292;BME280;36190;54.980;73.388;2024-01-07T07:13:03;100764.06;;;-13.92;66.35
50292;BME280;36190;54.980;73.388;2024-01-07T07:15:32;100752.91;;;-13.87;66.39
50292;BME280;36190;54.980;73.388;2024-01-07T07:17:59;100740.97;;;-13.92;66.27
50292;BME280;36190;54.980;73.388;2024-01-07T07:20:26;100751.25;;;-14.03;66.16
50292;BME280;36190;54.980;73.388;2024-01-07T07:22:54;100738.44;;;-14.03;66.47
50292;BME280;36190;54.980;73.388;2024-01-07T07:25:21;100725.63;;;-14.00;66.48
50292;BME280;36190;54.980;73.388;2024-01-07T07:27:49;100735.88;;;-14.00;66.53
50292;BME280;36190;54.980;73.388;2024-01-07T07:30:17;100727.31;;;-14.05;66.45
50292;BME280;36190;54.980;73.388;2024-01-07T07:32:46;100711.94;;;-14.05;66.39
50292;BME280;36190;54.980;73.388;2024-01-07T07:35:14;100696.56;;;-14.15;66.38
50292;BME280;36190;54.980;73.388;2024-01-07T07:37:42;100703.44;;;-14.17;66.46
50292;BME280;36190;54.980;73.388;2024-01-07T07:40:10;100696.56;;;-14.12;66.54
50292;BME280;36190;54.980;73.388;2024-01-07T07:42:39;100698.25;;;-14.04;66.73
50292;BME280;36190;54.980;73.388;2024-01-07T07:45:07;100693.13;;;-14.04;66.57
50292;BME280;36190;54.980;73.388;2024-01-07T07:47:35;100684.59;;;-14.10;66.42
50292;BME280;36190;54.980;73.388;2024-01-07T07:50:05;100692.28;;;-14.13;66.60
50292;BME280;36190;54.980;73.388;2024-01-07T07:52:33;100687.19;;;-14.16;66.63
50292;BME280;36190;54.980;73.388;2024-01-07T07:55:00;100681.16;;;-14.12;66.82
50292;BME280;36190;54.980;73.388;2024-01-07T07:57:28;100679.47;;;-14.10;66.75
50292;BME280;36190;54.980;73.388;2024-01-07T07:59:55;100678.59;;;-14.05;66.69
50292;BME280;36190;54.980;73.388;2024-01-07T08:02:23;100673.44;;;-13.98;66.79
50292;BME280;36190;54.980;73.388;2024-01-07T08:04:50;100671.72;;;-13.89;66.80
50292;BME280;36190;54.980;73.388;2024-01-07T08:07:19;100662.28;;;-13.84;66.71
50292;BME280;36190;54.980;73.388;2024-01-07T08:09:49;100651.16;;;-13.86;66.74
50292;BME280;36190;54.980;73.388;2024-01-07T08:12:17;100665.75;;;-13.94;66.64
50292;BME280;36190;54.980;73.388;2024-01-07T08:14:44;100662.31;;;-13.98;66.76
50292;BME280;36190;54.980;73.388;2024-01-07T08:17:11;100655.47;;;-13.96;66.98
50292;BME280;36190;54.980;73.388;2024-01-07T08:19:39;100652.88;;;-13.90;67.12
50292;BME280;36190;54.980;73.388;2024-01-07T08:22:06;100649.44;;;-13.84;67.10
50292;BME280;36190;54.980;73.388;2024-01-07T08:24:36;100645.13;;;-13.77;67.03
50292;BME280;36190;54.980;73.388;2024-01-07T08:27:04;100641.69;;;-13.73;67.19
50292;BME280;36190;54.980;73.388;2024-01-07T08:29:32;100633.09;;;-13.69;67.05
50292;BME280;36190;54.980;73.388;2024-01-07T08:31:59;100622.84;;;-13.69;67.09
50292;BME280;36190;54.980;73.388;2024-01-07T08:34:27;100621.13;;;-13.70;66.92
50292;BME280;36190;54.980;73.388;2024-01-07T08:36:54;100616.03;;;-13.73;66.89
50292;BME280;36190;54.980;73.388;2024-01-07T08:39:22;100603.22;;;-13.78;67.02
50292;BME280;36190;54.980;73.388;2024-01-07T08:41:53;100596.38;;;-13.76;66.94
50292;BME280;36190;54.980;73.388;2024-01-07T08:44:21;100598.06;;;-13.75;67.07
50292;BME280;36190;54.980;73.388;2024-01-07T08:46:48;100583.53;;;-13.76;66.99
50292;BME280;36190;54.980;73.388;2024-01-07T08:49:16;100576.72;;;-13.78;67.02
50292;BME280;36190;54.980;73.388;2024-01-07T08:51:43;100566.47;;;-13.80;66.96
50292;BME280;36190;54.980;73.388;2024-01-07T08:54:11;100559.63;;;-13.76;67.21
50292;BME280;36190;54.980;73.388;2024-01-07T08:56:38;100565.56;;;-13.70;67.36
50292;BME280;36190;54.980;73.388;2024-01-07T08:59:07;100569.78;;;-13.65;67.34
50292;BME280;36190;54.980;73.388;2024-01-07T09:01:35;100563.81;;;-13.68;67.29
50292;BME280;36190;54.980;73.388;2024-01-07T09:04:03;100558.69;;;-13.66;67.29
50292;BME280;36190;54.980;73.388;2024-01-07T09:06:31;100552.72;;;-13.68;67.31
50292;BME280;36190;54.980;73.388;2024-01-07T09:08:58;100553.56;;;-13.68;67.28
50292;BME280;36190;54.980;73.388;2024-01-07T09:11:26;100549.28;;;-13.70;67.35
50292;BME280;36190;54.980;73.388;2024-01-07T09:13:53;100536.50;;;-13.73;67.38
50292;BME280;36190;54.980;73.388;2024-01-07T09:16:22;100538.19;;;-13.74;67.49
50292;BME280;36190;54.980;73.388;2024-01-07T09:18:50;100540.75;;;-13.72;67.64
50292;BME280;36190;54.980;73.388;2024-01-07T09:21:18;100538.16;;;-13.68;67.77
50292;BME280;36190;54.980;73.388;2024-01-07T09:23:45;100539.88;;;-13.70;67.75
50292;BME280;36190;54.980;73.388;2024-01-07T09:26:12;100539.03;;;-13.70;67.82
50292;BME280;36190;54.980;73.388;2024-01-07T09:28:40;100512.50;;;-13.68;68.02
50292;BME280;36190;54.980;73.388;2024-01-07T09:31:08;100516.75;;;-13.65;67.94
50292;BME280;36190;54.980;73.388;2024-01-07T09:33:37;100509.91;;;-13.63;68.13
50292;BME280;36190;54.980;73.388;2024-01-07T09:36:07;100494.50;;;-13.60;68.05
50292;BME280;36190;54.980;73.388;2024-01-07T09:38:34;100498.75;;;-13.59;68.01
50292;BME280;36190;54.980;73.388;2024-01-07T09:41:02;100493.63;;;-13.60;68.06
50292;BME280;36190;54.980;73.388;2024-01-07T09:43:30;100482.53;;;-13.61;68.05
50292;BME280;36190;54.980;73.388;2024-01-07T09:45:58;100486.78;;;-13.60;68.22
50292;BME280;36190;54.980;73.388;2024-01-07T09:48:26;100472.22;;;-13.58;68.16
50292;BME280;36190;54.980;73.388;2024-01-07T09:50:57;100468.75;;;-13.54;68.38
50292;BME280;36190;54.980;73.388;2024-01-07T09:53:25;100459.34;;;-13.51;68.25
50292;BME280;36190;54.980;73.388;2024-01-07T09:56:07;100454.16;;;-13.48;68.25
50292;BME280;36190;54.980;73.388;2024-01-07T09:58:39;100440.47;;;-13.47;68.42
50292;BME280;36190;54.980;73.388;2024-01-07T10:01:08;100443.03;;;-13.47;68.39
50292;BME280;36190;54.980;73.388;2024-01-07T10:03:35;100436.13;;;-13.44;68.48
50292;BME280;36190;54.980;73.388;2024-01-07T10:06:05;100432.63;;;-13.38;68.64
50292;BME280;36190;54.980;73.388;2024-01-07T10:08:32;100437.72;;;-13.32;68.78
50292;BME280;36190;54.980;73.388;2024-01-07T10:11:00;100429.97;;;-13.29;68.47
50292;BME280;36190;54.980;73.388;2024-01-07T10:13:29;100439.41;;;-13.28;68.73
50292;BME280;36190;54.980;73.388;2024-01-07T10:15:56;100434.28;;;-13.31;68.62
50292;BME280;36190;54.980;73.388;2024-01-07T10:18:25;100432.53;;;-13.29;68.74
50292;BME280;36190;54.980;73.388;2024-01-07T10:20:53;100437.72;;;-13.32;68.84
50292;BME280;36190;54.980;73.388;2024-01-07T10:23:22;100424.06;;;-13.37;68.71
50292;BME280;36190;54.980;73.388;2024-01-07T10:25:50;100424.94;;;-13.38;69.08
50292;BME280;36190;54.980;73.388;2024-01-07T10:28:16;100413.84;;;-13.40;69.12
50292;BME280;36190;54.980;73.388;2024-01-07T10:30:48;100412.09;;;-13.35;69.34
50292;BME280;36190;54.980;73.388;2024-01-07T10:33:17;100400.19;;;-13.42;69.22
50292;BME280;36190;54.980;73.388;2024-01-07T10:35:52;100403.47;;;-13.31;69.58
50292;BME280;36190;54.980;73.388;2024-01-07T10:38:21;100390.63;;;-13.32;69.52
50292;BME280;36190;54.980;73.388;2024-01-07T10:40:52;100387.19;;;-13.30;69.68
50292;BME280;36190;54.980;73.388;2024-01-07T10:43:19;100389.81;;;-13.33;69.88
50292;BME280;36190;54.980;73.388;2024-01-07T10:45:47;100369.19;;;-13.27;70.09
50292;BME280;36190;54.980;73.388;2024-01-07T10:48:17;100368.28;;;-13.22;70.04
50292;BME280;36190;54.980;73.388;2024-01-07T10:50:46;100369.91;;;-13.15;70.40
50292;BME280;36190;54.980;73.388;2024-01-07T10:53:18;100361.28;;;-13.09;70.50
50292;BME280;36190;54.980;73.388;2024-01-07T10:55:54;100351.88;;;-13.09;70.78
50292;BME280;36190;54.980;73.388;2024-01-07T10:58:26;100347.56;;;-13.07;70.75
50292;BME280;36190;54.980;73.388;2024-01-07T11:00:54;100342.44;;;-13.08;70.89
50292;BME280;36190;54.980;73.388;2024-01-07T11:03:27;100325.31;;;-13.09;71.20
50292;BME280;36190;54.980;73.388;2024-01-07T11:06:01;100324.44;;;-13.07;71.49
50292;BME280;36190;54.980;73.388;2024-01-07T11:08:36;100311.59;;;-13.08;71.48
50292;BME280;36190;54.980;73.388;2024-01-07T11:11:14;100303.81;;;-13.02;71.68
50292;BME280;36190;54.980;73.388;2024-01-07T11:13:42;100306.34;;;-12.98;71.93
50292;BME280;36190;54.980;73.388;2024-01-07T11:16:10;100295.97;;;-12.91;72.08
50292;BME280;36190;54.980;73.388;2024-01-07T11:18:38;100286.56;;;-12.91;72.16
50292;BME280;36190;54.980;73.388;2024-01-07T11:21:06;100281.38;;;-12.89;72.33
50292;BME280;36190;54.980;73.388;2024-01-07T11:23:34;100277.09;;;-12.89;72.54
50292;BME280;36190;54.980;73.388;2024-01-07T11:26:04;100272.81;;;-12.88;72.68
50292;BME280;36190;54.980;73.388;2024-01-07T11:28:50;100237.78;;;-12.95;73.11
50292;BME280;36190;54.980;73.388;2024-01-07T11:31:19;100239.53;;;-12.98;72.86
50292;BME280;36190;54.980;73.388;2024-01-07T11:33:48;100256.47;;;-12.84;73.23
50292;BME280;36190;54.980;73.388;2024-01-07T11:36:16;100241.88;;;-12.82;73.37
50292;BME280;36190;54.980;73.388;2024-01-07T11:38:45;100236.72;;;-12.80;73.56
50292;BME280;36190;54.980;73.388;2024-01-07T11:41:13;100240.13;;;-12.80;73.96
50292;BME280;36190;54.980;73.388;2024-01-07T11:43:56;100247.75;;;-12.74;74.29
50292;BME280;36190;54.980;73.388;2024-01-07T11:46:25;100230.63;;;-12.75;74.37
50292;BME280;36190;54.980;73.388;2024-01-07T11:48:55;100233.88;;;-12.63;74.50
50292;BME280;36190;54.980;73.388;2024-01-07T11:51:25;100238.03;;;-12.53;74.77
50292;BME280;36190;54.980;73.388;2024-01-07T11:53:52;100226.75;;;-12.46;74.70
50292;BME280;36190;54.980;73.388;2024-01-07T11:56:20;100216.34;;;-12.39;75.00
50292;BME280;36190;54.980;73.388;2024-01-07T11:58:47;100211.91;;;-12.31;75.08
50292;BME280;36190;54.980;73.388;2024-01-07T12:01:16;100211.88;;;-12.28;74.97
50292;BME280;36190;54.980;73.388;2024-01-07T12:03:44;100206.63;;;-12.22;75.19
50292;BME280;36190;54.980;73.388;2024-01-07T12:06:13;100210.03;;;-12.20;75.30
50292;BME280;36190;54.980;73.388;2024-01-07T12:08:41;100197.16;;;-12.20;75.31
50292;BME280;36190;54.980;73.388;2024-01-07T12:11:11;100191.16;;;-12.20;75.42
50292;BME280;36190;54.980;73.388;2024-01-07T12:13:39;100174.03;;;-12.23;75.34
50292;BME280;36190;54.980;73.388;2024-01-07T12:16:08;100156.13;;;-12.27;75.70
50292;BME280;36190;54.980;73.388;2024-01-07T12:18:38;100179.81;;;-12.10;75.97
50292;BME280;36190;54.980;73.388;2024-01-07T12:21:06;100173.75;;;-12.07;76.15
50292;BME280;36190;54.980;73.388;2024-01-07T12:23:35;100167.72;;;-12.05;76.12
50292;BME280;36190;54.980;73.388;2024-01-07T12:26:07;100153.84;;;-11.99;76.48
50292;BME280;36190;54.980;73.388;2024-01-07T12:28:35;100155.50;;;-11.95;76.63
50292;BME280;36190;54.980;73.388;2024-01-07T12:31:03;100146.88;;;-11.92;76.64
50292;BME280;36190;54.980;73.388;2024-01-07T12:33:32;100139.97;;;-11.92;76.76
50292;BME280;36190;54.980;73.388;2024-01-07T12:36:01;100127.06;;;-11.89;76.87